Time;durP1;ratioP1;P1;durP2;ratioP2;P2;SDS_P1;SDS_P2;PMS_P1;PMS_P2;Temp;Humidity;BMP_temperature;BMP_pressure;BME280_temperature;BME280_humidity;BME280_pressure;Samples;Min_cycle;Max_cycle;Signal;HPM_P1;HPM_P2
2022/11/21 00:01:44;;;;;;;;;;;2.20;99.90;;;;;;4990697;28;19929;-70
2022/11/21 00:04:09;;;;;;;;;;;2.20;99.90;;;;;;4992956;28;20323;-67
2022/11/21 00:06:35;;;;;;;;;;;2.10;99.90;;;;;;4991861;28;20381;-67
2022/11/21 00:09:00;;;;;;;;;;;2.10;99.90;;;;;;4993521;28;19926;-67
2022/11/21 00:11:26;;;;;;;;;;;2.10;99.90;;;;;;4992959;28;19922;-67
2022/11/21 00:13:51;;;;;;;;;;;2.10;99.90;;;;;;4987492;28;19925;-67
2022/11/21 00:16:17;;;;;;;;;;;2.30;99.90;;;;;;4993552;28;19983;-67
2022/11/21 00:18:43;;;;;;;;;;;2.10;99.90;;;;;;4993010;28;20009;-67
2022/11/21 00:21:16;;;;;;;;;;;2.10;99.90;;;;;;4991383;28;19921;-68
2022/11/21 00:23:42;;;;;;;;;;;2.10;99.90;;;;;;4990879;28;19928;-68
2022/11/21 00:26:08;;;;;;;;;;;2.10;99.90;;;;;;4992646;28;19932;-68
2022/11/21 00:28:34;;;;;;;;;;;2.10;99.90;;;;;;4991804;28;20288;-68
2022/11/21 00:31:00;;;;;;;;;;;2.10;99.90;;;;;;4993658;28;20444;-68
2022/11/21 00:33:25;;;;;;;;;;;2.10;99.90;;;;;;4993886;28;20020;-68
2022/11/21 00:35:51;;;;;;;;;;;2.10;99.90;;;;;;4990924;28;19945;-68
2022/11/21 00:38:16;;;;;;;;;;;2.10;99.90;;;;;;4992727;28;19921;-68
2022/11/21 00:40:42;;;;;;;;;;;2.10;99.90;;;;;;4990198;28;19937;-69
2022/11/21 00:43:08;;;;;;;;;;;2.10;99.90;;;;;;4991445;28;19929;-68
2022/11/21 00:45:33;;;;;;;;;;;2.10;99.90;;;;;;4992066;28;19921;-68
2022/11/21 00:47:59;;;;;;;;;;;2.10;99.90;;;;;;4992390;28;19974;-68
2022/11/21 00:50:24;;;;;;;;;;;2.10;99.90;;;;;;4991497;28;20020;-67
2022/11/21 00:52:54;;;;;;;;;;;2.10;99.90;;;;;;4991659;28;19952;-68
2022/11/21 00:55:19;;;;;;;;;;;2.00;99.90;;;;;;4992431;28;19928;-68
2022/11/21 00:57:45;;;;;;;;;;;2.10;99.90;;;;;;4989719;28;20288;-68
2022/11/21 01:00:10;;;;;;;;;;;2.10;99.90;;;;;;4991035;28;19922;-68
2022/11/21 01:02:36;;;;;;;;;;;2.10;99.90;;;;;;4990414;28;19975;-68
2022/11/21 01:05:01;;;;;;;;;;;2.10;99.90;;;;;;4991109;28;20331;-68
2022/11/21 01:07:27;;;;;;;;;;;2.10;99.90;;;;;;4995314;28;19926;-68
2022/11/21 01:09:53;;;;;;;;;;;2.10;99.90;;;;;;4991281;28;20270;-68
2022/11/21 01:12:18;;;;;;;;;;;2.10;99.90;;;;;;4993123;28;20012;-68
2022/11/21 01:14:44;;;;;;;;;;;2.10;99.90;;;;;;4991629;28;20276;-68
2022/11/21 01:17:09;;;;;;;;;;;2.10;99.90;;;;;;4990994;28;19922;-68
2022/11/21 01:19:35;;;;;;;;;;;2.50;99.90;;;;;;4991443;28;19933;-68
2022/11/21 01:22:00;;;;;;;;;;;2.10;99.90;;;;;;4991560;28;19968;-69
2022/11/21 01:24:26;;;;;;;;;;;2.10;99.90;;;;;;4991311;28;19921;-68
2022/11/21 01:26:53;;;;;;;;;;;2.10;99.90;;;;;;4991403;28;20016;-68
2022/11/21 01:29:18;;;;;;;;;;;2.10;99.90;;;;;;4991882;28;19921;-68
2022/11/21 01:31:44;;;;;;;;;;;2.10;99.90;;;;;;4990004;28;19975;-68
2022/11/21 01:34:09;;;;;;;;;;;2.00;99.90;;;;;;4992775;28;20034;-68
2022/11/21 01:36:35;;;;;;;;;;;2.00;99.90;;;;;;4991791;28;20370;-69
2022/11/21 01:39:04;;;;;;;;;;;2.00;99.90;;;;;;4991056;28;19921;-69
2022/11/21 01:41:39;;;;;;;;;;;2.00;99.90;;;;;;4991292;28;20282;-69
2022/11/21 01:44:21;;;;;;;;;;;1.90;99.90;;;;;;4990039;28;20400;-68
2022/11/21 01:46:47;;;;;;;;;;;1.90;99.90;;;;;;4987536;28;19922;-68
2022/11/21 01:49:22;;;;;;;;;;;1.80;99.90;;;;;;4991065;28;19966;-68
2022/11/21 01:52:08;;;;;;;;;;;1.70;99.90;;;;;;4990598;28;19921;-70
2022/11/21 01:54:37;;;;;;;;;;;1.60;99.90;;;;;;4989318;28;19921;-68
2022/11/21 01:57:11;;;;;;;;;;;1.50;99.90;;;;;;4991245;28;19966;-68
2022/11/21 01:59:36;;;;;;;;;;;1.40;99.90;;;;;;4986244;28;19929;-68
2022/11/21 02:02:05;;;;;;;;;;;1.30;99.90;;;;;;4990889;28;20322;-68
2022/11/21 02:04:34;;;;;;;;;;;1.20;99.90;;;;;;4990688;28;19929;-68
2022/11/21 02:07:01;;;;;;;;;;;1.10;99.90;;;;;;4989008;28;19922;-68
2022/11/21 02:09:28;;;;;;;;;;;1.10;99.90;;;;;;4991274;28;19922;-68
2022/11/21 02:11:56;;;;;;;;;;;0.50;99.90;;;;;;4991037;28;20013;-68
2022/11/21 02:14:22;;;;;;;;;;;0.90;99.90;;;;;;4989254;28;19932;-68
2022/11/21 02:16:48;;;;;;;;;;;0.90;99.90;;;;;;4992307;28;19926;-68
2022/11/21 02:19:22;;;;;;;;;;;0.90;99.90;;;;;;4990192;28;20284;-68
2022/11/21 02:22:01;;;;;;;;;;;0.80;99.90;;;;;;4992443;28;19925;-68
2022/11/21 02:24:31;;;;;;;;;;;0.70;99.90;;;;;;4990877;28;20376;-68
2022/11/21 02:26:58;;;;;;;;;;;0.60;99.90;;;;;;4990999;28;19921;-68
2022/11/21 02:29:24;;;;;;;;;;;0.60;99.90;;;;;;4990328;28;21420;-68
2022/11/21 02:31:51;;;;;;;;;;;0.50;99.90;;;;;;4989108;28;19921;-68
2022/11/21 02:34:16;;;;;;;;;;;0.40;99.90;;;;;;4989918;28;19969;-68
2022/11/21 02:36:43;;;;;;;;;;;0.40;99.90;;;;;;4990236;28;20348;-68
2022/11/21 02:39:10;;;;;;;;;;;0.30;99.90;;;;;;4990909;28;19948;-68
2022/11/21 02:41:38;;;;;;;;;;;0.30;99.90;;;;;;4989602;28;19925;-68
2022/11/21 02:44:24;;;;;;;;;;;0.30;99.90;;;;;;4991747;28;19929;-68
2022/11/21 02:46:50;;;;;;;;;;;0.30;99.90;;;;;;4979273;28;20337;-68
2022/11/21 02:49:19;;;;;;;;;;;0.20;99.90;;;;;;4988285;28;19928;-68
2022/11/21 02:51:45;;;;;;;;;;;0.20;99.90;;;;;;4990053;28;19925;-68
2022/11/21 02:54:10;;;;;;;;;;;0.20;99.90;;;;;;4990755;28;20388;-67
2022/11/21 02:56:36;;;;;;;;;;;0.10;99.90;;;;;;4987880;28;19921;-68
2022/11/21 02:59:02;;;;;;;;;;;0.10;99.90;;;;;;4990386;28;19972;-68
2022/11/21 03:01:27;;;;;;;;;;;-0.10;99.90;;;;;;4989751;28;20005;-68
2022/11/21 03:03:53;;;;;;;;;;;0.00;99.90;;;;;;4988800;28;19921;-68
2022/11/21 03:06:18;;;;;;;;;;;0.00;99.90;;;;;;4991802;28;20306;-68
2022/11/21 03:08:44;;;;;;;;;;;-0.10;99.90;;;;;;4988249;28;19970;-68
2022/11/21 03:11:09;;;;;;;;;;;-0.10;99.90;;;;;;4989529;28;19925;-68
2022/11/21 03:13:35;;;;;;;;;;;-0.10;99.90;;;;;;4989602;28;20383;-68
2022/11/21 03:16:00;;;;;;;;;;;-0.10;99.90;;;;;;4990184;28;19922;-68
2022/11/21 03:18:26;;;;;;;;;;;-0.10;99.90;;;;;;4989051;28;19921;-68
2022/11/21 03:20:56;;;;;;;;;;;-0.10;99.90;;;;;;4990011;28;19923;-68
2022/11/21 03:23:21;;;;;;;;;;;-0.10;99.90;;;;;;4985844;28;19926;-68
2022/11/21 03:25:47;;;;;;;;;;;0.00;99.90;;;;;;4992066;28;19948;-68
2022/11/21 03:28:12;;;;;;;;;;;0.00;99.90;;;;;;4989103;28;19922;-68
2022/11/21 03:30:38;;;;;;;;;;;0.00;99.90;;;;;;4987342;28;19975;-68
2022/11/21 03:33:03;;;;;;;;;;;2.00;99.90;;;;;;4988628;28;20358;-68
2022/11/21 03:35:29;;;;;;;;;;;0.10;99.90;;;;;;4989660;28;19922;-69
2022/11/21 03:37:54;;;;;;;;;;;0.10;99.90;;;;;;4989134;28;19918;-68
2022/11/21 03:40:20;;;;;;;;;;;0.20;99.90;;;;;;4989855;28;19980;-68
2022/11/21 03:42:45;;;;;;;;;;;0.20;99.90;;;;;;4989043;28;19922;-68
2022/11/21 03:45:11;;;;;;;;;;;0.20;99.90;;;;;;4988783;28;19969;-68
2022/11/21 03:47:36;;;;;;;;;;;0.20;99.90;;;;;;4989181;28;19961;-69
2022/11/21 03:50:02;;;;;;;;;;;0.30;99.90;;;;;;4988631;28;19922;-68
2022/11/21 03:52:27;;;;;;;;;;;0.30;99.90;;;;;;4987274;28;19978;-68
2022/11/21 03:54:53;;;;;;;;;;;0.30;99.90;;;;;;4991786;28;19922;-68
2022/11/21 03:57:18;;;;;;;;;;;0.40;99.90;;;;;;4988531;28;20297;-68
2022/11/21 03:59:44;;;;;;;;;;;0.30;99.90;;;;;;4987651;28;19922;-68
2022/11/21 04:02:09;;;;;;;;;;;0.40;99.90;;;;;;4989531;28;19922;-68
2022/11/21 04:04:41;;;;;;;;;;;0.40;99.90;;;;;;4988087;28;19922;-68
2022/11/21 04:07:06;;;;;;;;;;;0.40;99.90;;;;;;4989213;28;19969;-66
2022/11/21 04:09:32;;;;;;;;;;;0.40;99.90;;;;;;4987927;28;20006;-68
2022/11/21 04:11:57;;;;;;;;;;;0.40;99.90;;;;;;4988529;28;19922;-69
2022/11/21 04:14:23;;;;;;;;;;;0.40;99.90;;;;;;4988531;28;19922;-69
2022/11/21 04:16:48;;;;;;;;;;;0.40;99.90;;;;;;4995681;28;20353;-69
2022/11/21 04:19:14;;;;;;;;;;;0.40;99.90;;;;;;4995513;28;19925;-68
2022/11/21 04:21:39;;;;;;;;;;;0.10;99.90;;;;;;4990682;28;19929;-68
2022/11/21 04:24:05;;;;;;;;;;;0.30;99.90;;;;;;4992804;28;20381;-69
2022/11/21 04:26:31;;;;;;;;;;;0.20;99.90;;;;;;4996101;28;20313;-68
2022/11/21 04:28:56;;;;;;;;;;;0.20;99.90;;;;;;4991793;28;20034;-69
2022/11/21 04:31:22;;;;;;;;;;;0.10;99.90;;;;;;4992392;28;19975;-69
2022/11/21 04:33:47;;;;;;;;;;;0.00;99.90;;;;;;4991657;28;20352;-69
2022/11/21 04:36:13;;;;;;;;;;;0.00;99.90;;;;;;4992648;28;19929;-69
2022/11/21 04:38:38;;;;;;;;;;;0.00;99.90;;;;;;4991420;28;19922;-69
2022/11/21 04:41:04;;;;;;;;;;;0.00;99.90;;;;;;4991464;28;20400;-69
2022/11/21 04:43:29;;;;;;;;;;;-0.10;99.90;;;;;;4991819;28;19921;-69
2022/11/21 04:45:55;;;;;;;;;;;-0.20;99.90;;;;;;4991306;28;19922;-69
2022/11/21 04:48:20;;;;;;;;;;;-0.30;99.90;;;;;;4991681;28;19922;-69
2022/11/21 04:50:46;;;;;;;;;;;-0.30;99.90;;;;;;4991867;28;19921;-69
2022/11/21 04:53:11;;;;;;;;;;;-0.30;99.90;;;;;;4992030;28;20028;-69
2022/11/21 04:55:37;;;;;;;;;;;-0.40;99.90;;;;;;4992009;28;19966;-69
2022/11/21 04:58:02;;;;;;;;;;;-0.40;99.90;;;;;;4992287;28;19922;-69
2022/11/21 05:00:28;;;;;;;;;;;-0.50;99.90;;;;;;4991752;28;20016;-69
2022/11/21 05:02:53;;;;;;;;;;;-0.50;99.90;;;;;;4991380;28;19990;-69
2022/11/21 05:05:19;;;;;;;;;;;-0.50;99.90;;;;;;4990991;28;19921;-69
2022/11/21 05:07:44;;;;;;;;;;;-0.50;99.90;;;;;;4992312;28;19922;-69
2022/11/21 05:10:13;;;;;;;;;;;-0.50;99.90;;;;;;4991051;28;20330;-69
2022/11/21 05:15:22;;;;;;;;;;;-0.50;99.90;;;;;;4991875;28;20384;-69
2022/11/21 05:17:48;;;;;;;;;;;-0.60;99.90;;;;;;4990856;28;19973;-69
2022/11/21 05:20:13;;;;;;;;;;;-0.70;99.90;;;;;;4990913;28;19922;-69
2022/11/21 05:22:39;;;;;;;;;;;-0.70;99.90;;;;;;4994424;28;19922;-69
2022/11/21 05:25:05;;;;;;;;;;;-0.70;99.90;;;;;;4989757;28;20369;-69
2022/11/21 05:27:30;;;;;;;;;;;-0.80;99.90;;;;;;4990901;28;19928;-70
2022/11/21 05:29:56;;;;;;;;;;;-0.70;99.90;;;;;;4991704;28;19922;-69
2022/11/21 05:32:21;;;;;;;;;;;-0.80;99.90;;;;;;4991356;28;20020;-69
2022/11/21 05:34:47;;;;;;;;;;;-0.50;99.90;;;;;;4990302;28;19926;-71
2022/11/21 05:37:12;;;;;;;;;;;-0.70;99.90;;;;;;4991170;28;19921;-70
2022/11/21 05:39:41;;;;;;;;;;;-0.80;99.90;;;;;;4991120;28;19922;-68
2022/11/21 05:42:06;;;;;;;;;;;-0.80;99.90;;;;;;4993676;28;19964;-70
2022/11/21 05:44:35;;;;;;;;;;;-0.80;99.90;;;;;;4990684;28;20012;-70
2022/11/21 05:47:00;;;;;;;;;;;-0.80;99.90;;;;;;4991368;28;19922;-69
2022/11/21 05:49:26;;;;;;;;;;;-0.80;99.90;;;;;;4987393;28;19929;-69
2022/11/21 05:51:51;;;;;;;;;;;-0.90;99.90;;;;;;4990187;28;20305;-69
2022/11/21 05:54:17;;;;;;;;;;;-0.80;99.90;;;;;;4991918;28;19984;-68
2022/11/21 05:56:42;;;;;;;;;;;-0.90;99.90;;;;;;4989618;28;19925;-69
2022/11/21 05:59:09;;;;;;;;;;;-0.90;99.90;;;;;;4988994;28;19992;-68
2022/11/21 06:04:19;;;;;;;;;;;-0.90;99.90;;;;;;4996321;28;20012;-70
2022/11/21 06:06:45;;;;;;;;;;;-0.80;99.90;;;;;;4992197;28;19980;-69
2022/11/21 06:09:10;;;;;;;;;;;-0.80;99.90;;;;;;4992494;28;19921;-73
2022/11/21 06:11:36;;;;;;;;;;;-0.70;99.90;;;;;;4990628;28;20079;-70
2022/11/21 06:14:01;;;;;;;;;;;-0.70;99.90;;;;;;4988952;28;19930;-71
2022/11/21 06:16:30;;;;;;;;;;;0.40;99.90;;;;;;4990676;28;20381;-68
2022/11/21 06:18:55;;;;;;;;;;;-0.70;99.90;;;;;;4991277;28;19922;-67
2022/11/21 06:21:22;;;;;;;;;;;-0.70;99.90;;;;;;4990409;28;19928;-71
2022/11/21 06:23:51;;;;;;;;;;;-0.80;99.90;;;;;;4989874;28;19930;-67
2022/11/21 06:26:19;;;;;;;;;;;-0.80;99.90;;;;;;4990391;28;19928;-72
2022/11/21 06:28:45;;;;;;;;;;;-0.80;99.90;;;;;;4991939;28;19930;-68
2022/11/21 06:31:13;;;;;;;;;;;-0.80;99.90;;;;;;4992009;28;19924;-70
2022/11/21 06:33:39;;;;;;;;;;;-0.70;99.90;;;;;;4989661;28;20479;-68
2022/11/21 06:36:06;;;;;;;;;;;-0.70;99.90;;;;;;4990522;28;19928;-68
2022/11/21 06:38:32;;;;;;;;;;;-0.70;99.90;;;;;;4989431;28;20296;-68
2022/11/21 06:40:58;;;;;;;;;;;-0.60;99.90;;;;;;4987979;28;20012;-68
2022/11/21 06:43:23;;;;;;;;;;;-0.70;99.90;;;;;;4993624;28;19967;-68
2022/11/21 06:45:49;;;;;;;;;;;-0.50;99.90;;;;;;4989924;28;19922;-68
2022/11/21 06:48:14;;;;;;;;;;;-0.50;99.90;;;;;;4988694;28;19922;-69
2022/11/21 06:50:40;;;;;;;;;;;-0.50;99.90;;;;;;4991478;28;19929;-68
2022/11/21 06:53:05;;;;;;;;;;;-0.40;99.90;;;;;;4991332;28;19929;-67
2022/11/21 06:55:31;;;;;;;;;;;-0.20;99.90;;;;;;4989544;28;19922;-68
2022/11/21 06:57:59;;;;;;;;;;;-0.20;99.90;;;;;;4990046;28;20300;-67
2022/11/21 07:00:26;;;;;;;;;;;-0.20;99.90;;;;;;4990340;28;19921;-67
2022/11/21 07:02:53;;;;;;;;;;;-0.20;99.90;;;;;;4991278;28;20373;-69
2022/11/21 07:05:18;;;;;;;;;;;-0.20;99.90;;;;;;4989854;28;19929;-66
2022/11/21 07:07:44;;;;;;;;;;;-0.20;99.90;;;;;;4989493;28;19922;-67
2022/11/21 07:10:09;;;;;;;;;;;-0.10;99.90;;;;;;4993946;28;19921;-67
2022/11/21 07:15:19;;;;;;;;;;;-0.10;99.90;;;;;;4987128;28;19922;-67
2022/11/21 07:17:47;;;;;;;;;;;1.80;99.90;;;;;;4988672;28;20545;-67
2022/11/21 07:20:13;;;;;;;;;;;-0.10;99.90;;;;;;4992807;28;20427;-67
2022/11/21 07:22:38;;;;;;;;;;;-0.10;99.90;;;;;;4987540;28;19927;-71
2022/11/21 07:25:04;;;;;;;;;;;0.00;99.90;;;;;;4993139;28;19934;-68
2022/11/21 07:27:30;;;;;;;;;;;0.10;99.90;;;;;;4988392;28;20323;-64
2022/11/21 07:29:57;;;;;;;;;;;0.10;99.90;;;;;;4990397;28;19976;-67
2022/11/21 07:32:23;;;;;;;;;;;0.10;99.90;;;;;;4989524;28;19922;-67
2022/11/21 07:34:49;;;;;;;;;;;0.10;99.90;;;;;;4990857;28;19928;-66
2022/11/21 07:37:17;;;;;;;;;;;0.20;99.90;;;;;;4991929;28;19921;-67
2022/11/21 07:39:42;;;;;;;;;;;0.20;99.90;;;;;;4989468;28;19921;-67
2022/11/21 07:42:08;;;;;;;;;;;0.20;99.90;;;;;;4988944;28;19928;-67
2022/11/21 07:44:34;;;;;;;;;;;0.30;99.90;;;;;;4987331;28;20373;-69
2022/11/21 07:46:59;;;;;;;;;;;0.30;99.90;;;;;;4989762;28;20377;-68
2022/11/21 07:49:24;;;;;;;;;;;0.30;99.90;;;;;;4993434;28;19929;-68
2022/11/21 07:51:50;;;;;;;;;;;0.40;99.90;;;;;;4989983;28;19921;-67
2022/11/21 07:54:15;;;;;;;;;;;0.40;99.90;;;;;;4993246;28;19983;-66
2022/11/21 07:56:50;;;;;;;;;;;0.40;99.90;;;;;;4992601;28;20249;-68
2022/11/21 07:59:18;;;;;;;;;;;1.80;99.90;;;;;;4992269;28;20353;-70
2022/11/21 08:01:43;;;;;;;;;;;0.50;99.90;;;;;;4992317;28;19928;-69
2022/11/21 08:04:09;;;;;;;;;;;0.60;99.90;;;;;;4993347;28;19922;-69
2022/11/21 08:06:34;;;;;;;;;;;0.60;99.90;;;;;;4991567;28;19944;-68
2022/11/21 08:09:09;;;;;;;;;;;0.60;99.90;;;;;;4992036;28;19922;-67
2022/11/21 08:11:35;;;;;;;;;;;0.60;99.90;;;;;;4987564;28;19929;-69
2022/11/21 08:14:01;;;;;;;;;;;0.60;99.90;;;;;;4994173;28;19947;-69
2022/11/21 08:16:26;;;;;;;;;;;0.60;99.90;;;;;;4991421;28;19958;-69
2022/11/21 08:18:52;;;;;;;;;;;0.60;99.90;;;;;;4991983;28;19922;-69
2022/11/21 08:21:20;;;;;;;;;;;1.10;99.90;;;;;;4991310;28;19922;-69
2022/11/21 08:23:46;;;;;;;;;;;-0.50;99.90;;;;;;4995548;28;19985;-69
2022/11/21 08:26:12;;;;;;;;;;;0.60;99.90;;;;;;4992144;28;19925;-69
2022/11/21 08:28:37;;;;;;;;;;;0.70;99.90;;;;;;4991871;28;19928;-69
2022/11/21 08:31:03;;;;;;;;;;;0.60;99.90;;;;;;4993795;28;19933;-70
2022/11/21 08:33:29;;;;;;;;;;;1.10;99.90;;;;;;4986084;28;19929;-69
2022/11/21 08:35:54;;;;;;;;;;;0.60;99.90;;;;;;4992625;28;19929;-68
2022/11/21 08:38:20;;;;;;;;;;;0.60;99.90;;;;;;4992600;28;20357;-68
2022/11/21 08:40:45;;;;;;;;;;;0.60;99.90;;;;;;4990438;28;19975;-68
2022/11/21 08:43:11;;;;;;;;;;;0.60;99.90;;;;;;4993719;28;19933;-68
2022/11/21 08:45:38;;;;;;;;;;;0.60;99.90;;;;;;4991848;28;19922;-68
2022/11/21 08:48:08;;;;;;;;;;;0.50;99.90;;;;;;4994255;28;19918;-68
2022/11/21 08:50:33;;;;;;;;;;;0.50;99.90;;;;;;4991440;28;19922;-67
2022/11/21 08:53:00;;;;;;;;;;;0.60;99.90;;;;;;4991141;28;20289;-71
2022/11/21 08:55:26;;;;;;;;;;;0.60;99.90;;;;;;4990427;28;19944;-71
2022/11/21 08:57:51;;;;;;;;;;;0.70;99.90;;;;;;4992343;28;20381;-71
2022/11/21 09:00:17;;;;;;;;;;;0.80;99.90;;;;;;4992536;28;20024;-71
2022/11/21 09:02:43;;;;;;;;;;;0.90;99.90;;;;;;4989673;28;19922;-72
2022/11/21 09:05:09;;;;;;;;;;;0.90;99.90;;;;;;4992327;28;20028;-71
2022/11/21 09:07:34;;;;;;;;;;;0.90;99.90;;;;;;4994178;28;20405;-71
2022/11/21 09:10:00;;;;;;;;;;;1.00;99.90;;;;;;4991431;28;20385;-71
2022/11/21 09:12:31;;;;;;;;;;;1.00;99.90;;;;;;4990815;28;19947;-71
2022/11/21 09:20:25;;;;;;;;;;;1.20;99.90;;;;;;4989171;28;19921;-71
2022/11/21 09:23:17;;;;;;;;;;;1.20;99.90;;;;;;4992817;28;20025;-72
2022/11/21 09:25:43;;;;;;;;;;;3.10;99.90;;;;;;4994632;28;19944;-72
2022/11/21 09:28:10;;;;;;;;;;;1.20;99.90;;;;;;4992668;28;20369;-73
2022/11/21 09:30:35;;;;;;;;;;;1.30;99.90;;;;;;4991281;28;19922;-71
2022/11/21 09:33:05;;;;;;;;;;;1.40;99.90;;;;;;4991561;28;19922;-70
2022/11/21 09:35:31;;;;;;;;;;;1.30;99.90;;;;;;4990130;28;19974;-71
2022/11/21 09:37:56;;;;;;;;;;;1.40;99.90;;;;;;4989838;28;19922;-72
2022/11/21 09:40:22;;;;;;;;;;;1.50;99.90;;;;;;4991665;28;20403;-71
2022/11/21 09:43:06;;;;;;;;;;;2.40;99.90;;;;;;4990207;28;20391;-71
2022/11/21 09:45:34;;;;;;;;;;;1.60;99.90;;;;;;4988489;28;19937;-71
2022/11/21 09:48:02;;;;;;;;;;;1.80;99.90;;;;;;4991406;28;20293;-71
2022/11/21 09:50:35;;;;;;;;;;;1.80;99.90;;;;;;4990365;28;19921;-71
2022/11/21 09:53:19;;;;;;;;;;;1.80;99.90;;;;;;4989722;28;20282;-71
2022/11/21 09:55:46;;;;;;;;;;;1.90;99.90;;;;;;4991155;28;20008;-72
2022/11/21 09:58:19;;;;;;;;;;;1.90;99.90;;;;;;4990396;28;19933;-72
2022/11/21 10:00:45;;;;;;;;;;;2.00;99.90;;;;;;4989352;28;19926;-72
2022/11/21 10:03:11;;;;;;;;;;;2.10;99.90;;;;;;4990893;28;19922;-72
2022/11/21 10:05:46;;;;;;;;;;;2.20;99.90;;;;;;4989034;28;20012;-72
2022/11/21 10:08:16;;;;;;;;;;;2.00;99.90;;;;;;4991052;28;19928;-71
2022/11/21 10:10:42;;;;;;;;;;;2.00;99.90;;;;;;4989648;28;19926;-71
2022/11/21 10:13:30;;;;;;;;;;;2.00;99.90;;;;;;4989959;28;19933;-72
2022/11/21 10:15:58;;;;;;;;;;;2.10;99.90;;;;;;4979717;28;20041;-72
2022/11/21 10:18:39;;;;;;;;;;;2.10;99.90;;;;;;4995085;28;19921;-72
2022/11/21 10:21:23;;;;;;;;;;;2.10;99.90;;;;;;4989531;28;19922;-71
2022/11/21 10:24:07;;;;;;;;;;;2.10;99.90;;;;;;4990593;28;19922;-72
2022/11/21 10:26:51;;;;;;;;;;;2.30;99.90;;;;;;4989962;28;20004;-72
2022/11/21 10:29:22;;;;;;;;;;;2.50;99.90;;;;;;4994247;28;20288;-71
2022/11/21 10:31:48;;;;;;;;;;;2.70;99.90;;;;;;4990310;28;20029;-71
2022/11/21 10:34:19;;;;;;;;;;;2.60;99.90;;;;;;4989896;28;19928;-71
2022/11/21 10:36:48;;;;;;;;;;;2.60;99.90;;;;;;4990555;28;19921;-72
2022/11/21 10:39:19;;;;;;;;;;;4.40;99.90;;;;;;4995060;28;20012;-71
2022/11/21 10:41:50;;;;;;;;;;;2.60;99.90;;;;;;4989608;28;19928;-72
2022/11/21 10:47:26;;;;;;;;;;;2.70;99.90;;;;;;5002743;28;20325;-71
2022/11/21 10:50:10;;;;;;;;;;;2.60;99.90;;;;;;4992190;28;19926;-71
2022/11/21 10:52:43;;;;;;;;;;;2.60;99.90;;;;;;4990094;28;19967;-71
2022/11/21 10:55:12;;;;;;;;;;;2.40;99.90;;;;;;4986157;28;19925;-74
2022/11/21 10:57:37;;;;;;;;;;;2.50;99.90;;;;;;4990120;28;19921;-78
2022/11/21 11:00:12;;;;;;;;;;;2.70;99.90;;;;;;4990432;28;20419;-72
2022/11/21 11:02:42;;;;;;;;;;;2.70;99.90;;;;;;4987355;28;20335;-72
2022/11/21 11:05:21;;;;;;;;;;;2.80;99.90;;;;;;4986236;28;19930;-73
2022/11/21 11:08:01;;;;;;;;;;;2.90;99.90;;;;;;4991696;28;19976;-77
2022/11/21 11:10:27;;;;;;;;;;;3.00;99.90;;;;;;4990358;28;20004;-75
2022/11/21 11:16:00;;;;;;;;;;;3.10;99.90;;;;;;4985897;28;19926;-73
2022/11/21 11:18:26;;;;;;;;;;;2.90;99.90;;;;;;4991646;28;19922;-73
2022/11/21 11:20:51;;;;;;;;;;;3.10;99.90;;;;;;4989005;28;20172;-71
2022/11/21 11:23:24;;;;;;;;;;;3.00;99.90;;;;;;4989951;28;19933;-71
2022/11/21 11:25:52;;;;;;;;;;;3.10;99.90;;;;;;4989027;28;19921;-72
2022/11/21 11:28:18;;;;;;;;;;;3.10;99.90;;;;;;4989957;28;19922;-72
2022/11/21 11:30:44;;;;;;;;;;;3.10;99.90;;;;;;4989989;28;19921;-72
2022/11/21 11:33:29;;;;;;;;;;;3.10;99.90;;;;;;4989777;28;20265;-72
2022/11/21 11:35:57;;;;;;;;;;;3.20;99.90;;;;;;4989286;28;19921;-72
2022/11/21 11:38:25;;;;;;;;;;;3.30;99.90;;;;;;4989882;28;20077;-72
2022/11/21 11:40:51;;;;;;;;;;;5.50;99.90;;;;;;4989849;28;20292;-73
2022/11/21 11:49:18;;;;;;;;;;;3.70;99.90;;;;;;4990878;28;19922;-73
2022/11/21 11:51:46;;;;;;;;;;;3.70;99.90;;;;;;4988813;28;19945;-73
2022/11/21 11:54:16;;;;;;;;;;;3.80;99.90;;;;;;4988191;28;19937;-73
2022/11/21 11:56:42;;;;;;;;;;;4.50;99.90;;;;;;4989405;28;20400;-74
2022/11/21 11:59:23;;;;;;;;;;;3.90;99.90;;;;;;4987257;28;19979;-73
2022/11/21 12:02:04;;;;;;;;;;;4.00;99.90;;;;;;4988374;28;20274;-73
2022/11/21 12:04:38;;;;;;;;;;;4.20;99.90;;;;;;4984389;28;19922;-72
2022/11/21 12:07:06;;;;;;;;;;;4.40;99.90;;;;;;4988547;28;20369;-73
2022/11/21 12:09:35;;;;;;;;;;;5.50;99.90;;;;;;4989133;28;20358;-73
2022/11/21 12:12:07;;;;;;;;;;;4.50;99.90;;;;;;4988416;28;20377;-73
2022/11/21 12:17:35;;;;;;;;;;;4.70;99.90;;;;;;4986192;28;20361;-73
2022/11/21 12:20:03;;;;;;;;;;;4.80;99.90;;;;;;4987268;28;19972;-73
2022/11/21 12:22:29;;;;;;;;;;;6.00;99.90;;;;;;4988125;28;20013;-73
2022/11/21 12:24:54;;;;;;;;;;;4.90;99.90;;;;;;4988013;28;20016;-73
2022/11/21 12:27:25;;;;;;;;;;;4.80;99.90;;;;;;4988600;28;20088;-72
2022/11/21 12:30:09;;;;;;;;;;;4.90;99.90;;;;;;4989915;28;19929;-73
2022/11/21 12:32:37;;;;;;;;;;;4.70;99.90;;;;;;4985214;28;19971;-73
2022/11/21 12:35:12;;;;;;;;;;;4.80;99.90;;;;;;4989176;28;19921;-73
2022/11/21 12:37:42;;;;;;;;;;;4.90;99.90;;;;;;4990101;28;20426;-73
2022/11/21 12:40:26;;;;;;;;;;;5.10;99.90;;;;;;4990247;28;19925;-73
2022/11/21 12:42:51;;;;;;;;;;;4.60;99.90;;;;;;4988075;28;20377;-75
2022/11/21 12:45:20;;;;;;;;;;;4.70;99.90;;;;;;4992500;28;19926;-74
2022/11/21 12:56:39;;;;;;;;;;;4.50;99.90;;;;;;4995838;28;19921;-74
2022/11/21 12:59:05;;;;;;;;;;;4.50;99.90;;;;;;4998873;28;19922;-74
2022/11/21 13:01:38;;;;;;;;;;;6.10;99.90;;;;;;4996138;28;19918;-74
2022/11/21 13:04:26;;;;;;;;;;;4.50;99.90;;;;;;4992312;28;19921;-74
2022/11/21 13:06:53;;;;;;;;;;;4.60;99.90;;;;;;4980329;28;20316;-74
2022/11/21 13:09:23;;;;;;;;;;;4.50;99.90;;;;;;4990430;28;19925;-74
2022/11/21 13:11:57;;;;;;;;;;;4.50;99.90;;;;;;4991006;28;20296;-74
2022/11/21 13:14:41;;;;;;;;;;;4.40;99.90;;;;;;4991145;28;19933;-74
2022/11/21 13:17:10;;;;;;;;;;;4.50;99.90;;;;;;4990601;28;19926;-74
2022/11/21 13:19:41;;;;;;;;;;;4.50;99.90;;;;;;4991550;28;19937;-73
2022/11/21 13:22:27;;;;;;;;;;;4.50;99.90;;;;;;4991313;28;20314;-74
2022/11/21 13:24:55;;;;;;;;;;;5.10;99.90;;;;;;4989040;28;19929;-73
2022/11/21 13:27:37;;;;;;;;;;;4.60;99.90;;;;;;4990586;28;19929;-76
2022/11/21 13:30:05;;;;;;;;;;;4.80;99.90;;;;;;4993594;28;19924;-71
2022/11/21 13:32:37;;;;;;;;;;;4.70;99.90;;;;;;5019084;28;20355;-71
2022/11/21 13:35:22;;;;;;;;;;;4.60;99.90;;;;;;4991625;28;19932;-71
2022/11/21 13:37:48;;;;;;;;;;;4.70;99.90;;;;;;5002311;28;19926;-74
2022/11/21 13:40:25;;;;;;;;;;;4.60;99.90;;;;;;4990404;28;20016;-72
2022/11/21 13:43:10;;;;;;;;;;;4.60;99.90;;;;;;4990364;28;19987;-74
2022/11/21 13:45:39;;;;;;;;;;;4.70;99.90;;;;;;4990126;28;19922;-76
2022/11/21 13:48:24;;;;;;;;;;;4.70;99.90;;;;;;4990705;28;19931;-72
2022/11/21 13:51:11;;;;;;;;;;;4.70;99.90;;;;;;4988729;28;20360;-72
2022/11/21 13:53:54;;;;;;;;;;;4.50;99.90;;;;;;4986811;28;19980;-72
2022/11/21 13:56:22;;;;;;;;;;;4.40;99.90;;;;;;4987427;28;20277;-71
2022/11/21 13:59:00;;;;;;;;;;;4.40;99.90;;;;;;4991005;28;20027;-75
2022/11/21 14:01:34;;;;;;;;;;;4.30;99.90;;;;;;4983149;28;19974;-73
2022/11/21 14:04:11;;;;;;;;;;;4.40;99.90;;;;;;4988820;28;20274;-72
2022/11/21 14:06:38;;;;;;;;;;;4.30;99.90;;;;;;4985803;28;19975;-74
2022/11/21 14:09:03;;;;;;;;;;;4.20;99.90;;;;;;4986337;28;19921;-73
2022/11/21 14:11:34;;;;;;;;;;;4.10;99.90;;;;;;4989402;28;20262;-72
2022/11/21 14:14:00;;;;;;;;;;;4.10;99.90;;;;;;4989114;28;20274;-74
2022/11/21 14:16:36;;;;;;;;;;;4.10;99.90;;;;;;4990557;28;20003;-75
2022/11/21 14:19:11;;;;;;;;;;;4.10;99.90;;;;;;4986568;28;19936;-77
2022/11/21 14:21:37;;;;;;;;;;;4.10;99.90;;;;;;4990144;28;20403;-74
2022/11/21 14:24:10;;;;;;;;;;;4.00;99.90;;;;;;4988969;28;19921;-72
2022/11/21 14:26:39;;;;;;;;;;;3.90;99.90;;;;;;4986066;28;19926;-73
2022/11/21 14:29:22;;;;;;;;;;;4.00;99.90;;;;;;4989985;28;19922;-74
2022/11/21 14:31:48;;;;;;;;;;;4.00;99.90;;;;;;4989219;28;19926;-74
2022/11/21 14:34:27;;;;;;;;;;;4.20;99.90;;;;;;4990404;28;20000;-75
2022/11/21 14:36:54;;;;;;;;;;;3.90;99.90;;;;;;4988626;28;19956;-75
2022/11/21 14:39:25;;;;;;;;;;;3.80;99.90;;;;;;4990065;28;19922;-73
2022/11/21 14:41:51;;;;;;;;;;;3.90;99.90;;;;;;4992612;28;19943;-76
2022/11/21 14:44:18;;;;;;;;;;;3.90;99.90;;;;;;4992436;28;19965;-76
2022/11/21 14:46:45;;;;;;;;;;;3.80;99.90;;;;;;4988841;28;20367;-74
2022/11/21 14:49:18;;;;;;;;;;;4.10;99.90;;;;;;4989710;28;19929;-74
2022/11/21 14:51:46;;;;;;;;;;;3.80;99.90;;;;;;4989347;28;20025;-74
2022/11/21 14:54:14;;;;;;;;;;;3.80;99.90;;;;;;4989227;28;19926;-75
2022/11/21 14:56:40;;;;;;;;;;;3.80;99.90;;;;;;4990916;28;19930;-72
2022/11/21 14:59:12;;;;;;;;;;;3.70;99.90;;;;;;4991118;28;19926;-73
2022/11/21 15:01:38;;;;;;;;;;;3.60;99.90;;;;;;4987836;28;20266;-72
2022/11/21 15:04:05;;;;;;;;;;;3.60;99.90;;;;;;4989608;28;19928;-74
2022/11/21 15:06:38;;;;;;;;;;;3.60;99.90;;;;;;4988497;28;20273;-74
2022/11/21 15:09:04;;;;;;;;;;;3.70;99.90;;;;;;4988987;28;19979;-79
2022/11/21 15:11:36;;;;;;;;;;;3.60;99.90;;;;;;4988625;28;19965;-76
2022/11/21 15:14:04;;;;;;;;;;;3.70;99.90;;;;;;4991323;28;19970;-78